createdAt,value
2018-03-06T00:00:48.682Z,0.00
2018-03-06T00:02:20.500Z,0.00
2018-03-06T00:03:52.567Z,0.00
2018-03-06T00:05:24.134Z,0.00
2018-03-06T00:06:55.953Z,0.00
2018-03-06T00:08:27.813Z,0.00
2018-03-06T00:09:59.687Z,0.00
2018-03-06T00:11:31.403Z,0.00
2018-03-06T00:13:03.222Z,0.00
2018-03-06T00:14:35.038Z,0.00
2018-03-06T00:16:06.856Z,0.00
2018-03-06T00:17:38.673Z,0.00
2018-03-06T00:19:10.490Z,0.00
2018-03-06T00:20:42.312Z,0.00
2018-03-06T00:22:14.225Z,0.00
2018-03-06T00:23:45.942Z,0.00
2018-03-06T00:25:17.758Z,0.00
2018-03-06T00:26:49.575Z,0.00
2018-03-06T00:28:21.391Z,0.00
2018-03-06T00:29:53.211Z,0.00
2018-03-06T00:31:25.027Z,0.00
2018-03-06T00:32:56.843Z,0.00
2018-03-06T00:34:28.760Z,0.00
2018-03-06T00:36:00.477Z,0.00
2018-03-06T00:37:32.294Z,0.00
2018-03-06T00:39:04.112Z,0.00
2018-03-06T00:40:36.029Z,0.00
2018-03-06T00:42:07.745Z,0.00
2018-03-06T00:43:39.563Z,0.00
2018-03-06T00:45:11.387Z,0.00
2018-03-06T00:46:43.197Z,0.00
2018-03-06T00:48:15.014Z,0.00
2018-03-06T00:49:46.831Z,0.00
2018-03-06T00:51:18.647Z,0.00
2018-03-06T00:52:50.470Z,0.00
2018-03-06T00:54:22.281Z,0.00
2018-03-06T00:55:54.102Z,0.00
2018-03-06T00:57:25.916Z,0.00
2018-03-06T00:58:57.884Z,0.00
2018-03-06T01:00:29.550Z,0.00
2018-03-06T01:02:01.366Z,0.00
2018-03-06T01:03:33.183Z,0.00
2018-03-06T01:05:05.101Z,0.00
2018-03-06T01:06:36.817Z,0.00
2018-03-06T01:08:08.634Z,0.00
2018-03-06T01:09:40.451Z,0.00
2018-03-06T01:11:12.368Z,0.00
2018-03-06T01:12:44.085Z,0.00
2018-03-06T01:14:15.906Z,0.00
2018-03-06T01:15:47.719Z,0.00
2018-03-06T01:17:19.639Z,0.00
2018-03-06T01:18:51.352Z,0.00
2018-03-06T01:20:23.232Z,0.00
2018-03-06T01:21:54.986Z,0.00
2018-03-06T01:23:26.804Z,0.00
2018-03-06T01:24:58.620Z,0.00
2018-03-06T01:26:30.439Z,0.00
2018-03-06T01:28:02.254Z,0.00
2018-03-06T01:29:34.070Z,0.00
2018-03-06T01:31:05.888Z,0.00
2018-03-06T01:32:37.715Z,0.00
2018-03-06T01:34:09.661Z,0.00
2018-03-06T01:35:41.440Z,0.00
2018-03-06T01:37:13.164Z,0.00
2018-03-06T01:38:44.971Z,0.00
2018-03-06T01:40:16.788Z,0.00
2018-03-06T01:41:48.606Z,0.00
2018-03-06T01:43:20.422Z,0.00
2018-03-06T01:44:52.239Z,0.00
2018-03-06T01:46:24.055Z,0.00
2018-03-06T01:47:55.877Z,0.00
2018-03-06T01:49:27.700Z,0.00
2018-03-06T01:50:59.506Z,0.00
2018-03-06T01:52:31.327Z,0.00
2018-03-06T01:54:03.239Z,0.00
2018-03-06T01:55:34.956Z,0.00
2018-03-06T01:57:06.791Z,0.00
2018-03-06T01:58:38.589Z,0.00
2018-03-06T02:00:10.407Z,0.00
2018-03-06T02:01:42.222Z,0.00
2018-03-06T02:03:14.040Z,0.00
2018-03-06T02:04:45.856Z,0.00
2018-03-06T02:06:17.774Z,0.00
2018-03-06T02:07:49.500Z,0.00
2018-03-06T02:09:21.307Z,0.00
2018-03-06T02:10:53.124Z,0.00
2018-03-06T02:12:25.040Z,0.00
2018-03-06T02:13:56.757Z,0.00
2018-03-06T02:15:28.573Z,0.00
2018-03-06T02:17:00.392Z,0.00
2018-03-06T02:18:32.206Z,0.00
2018-03-06T02:20:04.024Z,0.00
2018-03-06T02:21:35.841Z,0.00
2018-03-06T02:23:07.664Z,0.00
2018-03-06T02:24:39.476Z,0.00
2018-03-06T02:26:11.292Z,0.00
2018-03-06T02:27:43.117Z,0.00
2018-03-06T02:29:14.932Z,0.00
2018-03-06T02:30:47.099Z,0.00
2018-03-06T02:32:18.561Z,0.00
2018-03-06T02:33:50.379Z,0.00
2018-03-06T02:35:22.196Z,0.00
2018-03-06T02:36:54.117Z,0.00
2018-03-06T02:38:25.829Z,0.00
2018-03-06T02:39:57.660Z,0.00
2018-03-06T02:41:29.465Z,0.00
2018-03-06T02:43:01.284Z,0.00
2018-03-06T02:44:33.098Z,0.00
2018-03-06T02:46:04.923Z,0.00
2018-03-06T02:47:36.733Z,0.00
2018-03-06T02:49:08.653Z,0.00
2018-03-06T02:50:40.412Z,0.00
2018-03-06T02:52:12.185Z,0.00
2018-03-06T02:53:44.003Z,0.00
2018-03-06T02:55:15.819Z,0.00
2018-03-06T02:56:47.636Z,0.00
2018-03-06T02:58:19.454Z,0.00
2018-03-06T02:59:51.289Z,0.00
2018-03-06T03:01:23.100Z,0.00
2018-03-06T03:02:54.904Z,0.00
2018-03-06T03:04:26.814Z,0.00
2018-03-06T03:05:58.539Z,0.00
2018-03-06T03:07:30.605Z,0.00
2018-03-06T03:09:02.173Z,0.00
2018-03-06T03:10:33.989Z,0.00
2018-03-06T03:12:05.808Z,0.00
2018-03-06T03:13:37.723Z,0.00
2018-03-06T03:15:09.439Z,0.00
2018-03-06T03:16:41.272Z,0.00
2018-03-06T03:18:13.073Z,0.00
2018-03-06T03:19:44.890Z,0.00
2018-03-06T03:21:16.728Z,0.00
2018-03-06T03:22:48.525Z,0.00
2018-03-06T03:24:20.340Z,0.00
2018-03-06T03:25:52.257Z,0.00
2018-03-06T03:27:23.974Z,0.00
2018-03-06T03:28:55.790Z,0.00
2018-03-06T03:30:27.608Z,0.00
2018-03-06T03:31:59.701Z,0.00
2018-03-06T03:33:31.241Z,0.00
2018-03-06T03:35:03.058Z,0.00
2018-03-06T03:36:34.874Z,0.00
2018-03-06T03:38:06.713Z,0.00
2018-03-06T03:39:38.508Z,0.00
2018-03-06T03:41:10.323Z,0.00
2018-03-06T03:42:42.171Z,0.00
2018-03-06T03:44:14.062Z,0.00
2018-03-06T03:45:45.774Z,0.00
2018-03-06T03:47:17.590Z,0.00
2018-03-06T03:48:49.404Z,0.00
2018-03-06T03:50:21.221Z,0.00
2018-03-06T03:51:53.037Z,0.00
2018-03-06T03:53:24.855Z,0.00
2018-03-06T03:54:56.679Z,0.00
2018-03-06T03:56:28.494Z,0.00
2018-03-06T03:58:00.307Z,0.00
2018-03-06T03:59:32.120Z,0.00
2018-03-06T04:01:03.936Z,0.00
2018-03-06T04:02:36.153Z,0.00
2018-03-06T04:04:07.570Z,0.00
2018-03-06T04:05:39.385Z,0.00
2018-03-06T04:07:11.205Z,0.00
2018-03-06T04:08:43.119Z,0.00
2018-03-06T04:10:14.837Z,0.00
2018-03-06T04:11:46.652Z,0.00
2018-03-06T04:13:18.478Z,0.00
2018-03-06T04:14:50.385Z,0.00
2018-03-06T04:16:22.101Z,0.00
2018-03-06T04:17:53.917Z,0.00
2018-03-06T04:19:25.761Z,0.00
2018-03-06T04:20:57.650Z,0.00
2018-03-06T04:22:29.366Z,0.00
2018-03-06T04:24:01.187Z,0.00
2018-03-06T04:25:32.999Z,0.00
2018-03-06T04:27:04.816Z,0.00
2018-03-06T04:28:36.631Z,0.00
2018-03-06T04:30:08.448Z,0.00
2018-03-06T04:31:40.268Z,0.00
2018-03-06T04:33:12.093Z,0.00
2018-03-06T04:34:43.897Z,0.00
2018-03-06T04:36:15.738Z,0.00
2018-03-06T04:37:47.542Z,0.00
2018-03-06T04:39:20.002Z,0.00
2018-03-06T04:40:51.162Z,0.00
2018-03-06T04:42:22.979Z,0.00
2018-03-06T04:43:54.794Z,0.00
2018-03-06T04:45:26.610Z,0.00
2018-03-06T04:46:58.428Z,0.00
2018-03-06T04:48:30.245Z,0.00
2018-03-06T04:50:02.061Z,0.00
2018-03-06T04:51:33.876Z,0.00
2018-03-06T04:53:05.708Z,0.00
2018-03-06T04:54:37.528Z,0.00
2018-03-06T04:56:09.325Z,0.00
2018-03-06T04:57:41.541Z,0.00
2018-03-06T04:59:12.958Z,0.00
2018-03-06T05:00:44.774Z,0.00
2018-03-06T05:02:16.594Z,0.00
2018-03-06T05:03:48.656Z,0.00
2018-03-06T05:05:20.255Z,0.00
2018-03-06T05:06:52.042Z,0.00
2018-03-06T05:08:23.855Z,0.00
2018-03-06T05:09:55.704Z,0.00
2018-03-06T05:11:27.488Z,0.00
2018-03-06T05:12:59.305Z,0.00
2018-03-06T05:14:31.122Z,0.00
2018-03-06T05:16:03.038Z,0.00
2018-03-06T05:17:34.754Z,0.00
2018-03-06T05:19:06.570Z,0.00
2018-03-06T05:20:38.386Z,0.00
2018-03-06T05:22:10.202Z,0.00
2018-03-06T05:23:42.069Z,0.00
2018-03-06T05:25:13.835Z,0.00
2018-03-06T05:26:45.651Z,0.00
2018-03-06T05:28:17.493Z,0.00
2018-03-06T05:29:49.283Z,0.00
2018-03-06T05:31:21.101Z,0.00
2018-03-06T05:32:52.920Z,0.00
2018-03-06T05:34:24.837Z,0.00
2018-03-06T05:35:56.552Z,0.00
2018-03-06T05:37:28.368Z,0.00
2018-03-06T05:39:00.199Z,0.00
2018-03-06T05:40:32.110Z,0.00
2018-03-06T05:42:03.857Z,0.00
2018-03-06T05:43:35.633Z,0.00
2018-03-06T05:45:07.452Z,0.00
2018-03-06T05:46:39.265Z,0.00
2018-03-06T05:48:11.081Z,0.00
2018-03-06T05:49:42.897Z,0.00
2018-03-06T05:51:14.713Z,0.00
2018-03-06T05:52:46.630Z,0.00
2018-03-06T05:54:18.346Z,0.00
2018-03-06T05:55:50.162Z,0.00
2018-03-06T05:57:21.978Z,0.00
2018-03-06T05:58:53.794Z,0.00
2018-03-06T06:00:25.610Z,0.00
2018-03-06T06:01:57.428Z,0.00
2018-03-06T06:03:29.240Z,0.00
2018-03-06T06:05:01.307Z,0.00
2018-03-06T06:06:32.875Z,0.00
2018-03-06T06:08:04.689Z,0.00
2018-03-06T06:09:36.507Z,0.00
2018-03-06T06:11:08.420Z,0.00
2018-03-06T06:12:40.139Z,0.00
2018-03-06T06:14:11.952Z,0.00
2018-03-06T06:15:43.767Z,0.00
2018-03-06T06:17:15.583Z,0.00
2018-03-06T06:18:47.399Z,0.00
2018-03-06T06:20:19.215Z,0.00
2018-03-06T06:21:51.031Z,0.00
2018-03-06T06:23:22.847Z,0.00
2018-03-06T06:24:54.663Z,0.00
2018-03-06T06:26:26.478Z,0.00
2018-03-06T06:27:58.295Z,0.00
2018-03-06T06:29:30.211Z,0.00
2018-03-06T06:31:01.927Z,0.00
2018-03-06T06:32:33.742Z,0.00
2018-03-06T06:34:05.559Z,0.00
2018-03-06T06:35:37.625Z,0.00
2018-03-06T06:37:09.191Z,0.00
2018-03-06T06:38:41.006Z,0.00
2018-03-06T06:40:12.822Z,0.00
2018-03-06T06:41:44.638Z,0.00
2018-03-06T06:43:16.454Z,0.00
2018-03-06T06:44:48.270Z,0.00
2018-03-06T06:46:20.086Z,0.00
2018-03-06T06:47:52.002Z,0.00
2018-03-06T06:49:23.719Z,0.00
2018-03-06T06:50:55.533Z,0.00
2018-03-06T06:52:27.366Z,0.00
2018-03-06T06:53:59.166Z,0.00
2018-03-06T06:55:30.981Z,0.00
2018-03-06T06:57:02.799Z,0.00
2018-03-06T06:58:34.612Z,0.00
2018-03-06T07:00:06.433Z,0.00
2018-03-06T07:01:38.244Z,0.00
2018-03-06T07:03:10.060Z,0.00
2018-03-06T07:04:41.875Z,0.00
2018-03-06T07:06:14.042Z,0.00
2018-03-06T07:07:45.506Z,0.00
2018-03-06T07:09:17.323Z,0.00
2018-03-06T07:10:49.138Z,0.00
2018-03-06T07:12:21.061Z,0.00
2018-03-06T07:13:52.776Z,0.00
2018-03-06T07:15:24.586Z,0.00
2018-03-06T07:16:56.401Z,0.00
2018-03-06T07:18:28.217Z,0.00
2018-03-06T07:20:00.034Z,0.00
2018-03-06T07:21:31.848Z,0.00
2018-03-06T07:23:03.664Z,0.00
2018-03-06T07:24:35.580Z,0.00
2018-03-06T07:26:07.296Z,0.00
2018-03-06T07:27:39.113Z,0.00
2018-03-06T07:29:10.926Z,0.00
2018-03-06T07:30:42.743Z,0.00
2018-03-06T07:32:14.561Z,0.00
2018-03-06T07:33:46.375Z,0.00
2018-03-06T07:35:18.194Z,0.00
2018-03-06T07:36:50.256Z,0.00
2018-03-06T07:38:21.822Z,0.00
2018-03-06T07:39:53.640Z,0.00
2018-03-06T07:41:25.458Z,0.00
2018-03-06T07:42:57.469Z,0.00
2018-03-06T07:44:29.084Z,0.00
2018-03-06T07:46:00.921Z,0.00
2018-03-06T07:47:32.716Z,0.00
2018-03-06T07:49:04.630Z,0.00
2018-03-06T07:50:36.347Z,0.00
2018-03-06T07:52:08.162Z,0.00
2018-03-06T07:53:39.978Z,0.00
2018-03-06T07:55:11.806Z,0.00
2018-03-06T07:56:43.609Z,0.00
2018-03-06T07:58:15.424Z,0.00
2018-03-06T07:59:47.241Z,0.00
2018-03-06T08:01:19.155Z,0.00
2018-03-06T08:02:50.871Z,0.00
2018-03-06T08:04:22.686Z,0.00
2018-03-06T08:05:54.515Z,0.00
2018-03-06T08:07:26.567Z,0.00
2018-03-06T08:08:58.138Z,0.00
2018-03-06T08:10:29.949Z,0.00
2018-03-06T08:12:01.815Z,0.00
2018-03-06T08:13:33.674Z,0.00
2018-03-06T08:15:05.430Z,0.00
2018-03-06T08:16:37.205Z,0.00
2018-03-06T08:18:09.021Z,0.00
2018-03-06T08:19:40.938Z,0.00
2018-03-06T08:21:12.656Z,0.00
2018-03-06T08:22:44.472Z,0.00
2018-03-06T08:24:16.285Z,0.00
2018-03-06T08:25:48.098Z,0.00
2018-03-06T08:27:19.914Z,0.00
2018-03-06T08:28:51.735Z,0.00
2018-03-06T08:30:23.544Z,0.00
2018-03-06T08:31:55.360Z,0.00
2018-03-06T08:33:27.182Z,0.00
2018-03-06T08:34:58.991Z,0.00
2018-03-06T08:36:30.838Z,0.00
2018-03-06T08:38:02.723Z,0.00
2018-03-06T08:39:34.443Z,0.00
2018-03-06T08:41:06.259Z,0.00
2018-03-06T08:42:38.075Z,0.00
2018-03-06T08:44:09.890Z,0.00
2018-03-06T08:45:41.701Z,0.00
2018-03-06T08:47:13.516Z,0.00
2018-03-06T08:48:45.331Z,0.00
2018-03-06T08:50:17.148Z,0.00
2018-03-06T08:51:48.963Z,0.00
2018-03-06T08:53:20.778Z,0.00
2018-03-06T08:54:52.595Z,5.63
2018-03-06T08:56:24.511Z,5.63
2018-03-06T08:57:56.230Z,11.25
2018-03-06T08:59:28.042Z,11.25
2018-03-06T09:01:01.251Z,11.25
2018-03-06T09:02:31.672Z,16.88
2018-03-06T09:04:03.488Z,16.88
2018-03-06T09:05:35.304Z,22.50
2018-03-06T09:07:07.122Z,28.13
2018-03-06T09:08:39.184Z,33.75
2018-03-06T09:10:10.750Z,39.38
2018-03-06T09:11:42.566Z,45.00
2018-03-06T09:13:14.382Z,50.63
2018-03-06T09:14:46.297Z,50.63
2018-03-06T09:16:18.014Z,61.88
2018-03-06T09:17:49.830Z,67.50
2018-03-06T09:19:21.645Z,73.13
2018-03-06T09:20:53.461Z,84.38
2018-03-06T09:22:25.282Z,90.00
2018-03-06T09:23:57.094Z,90.00
2018-03-06T09:25:28.910Z,90.00
2018-03-06T09:27:00.734Z,95.63
2018-03-06T09:28:32.542Z,84.38
2018-03-06T09:30:04.361Z,90.00
2018-03-06T09:31:36.190Z,101.25
2018-03-06T09:33:08.092Z,129.38
2018-03-06T09:34:39.810Z,151.88
2018-03-06T09:36:11.626Z,168.75
2018-03-06T09:37:43.443Z,163.13
2018-03-06T09:39:15.264Z,157.50
2018-03-06T09:40:47.075Z,191.25
2018-03-06T09:42:18.891Z,213.75
2018-03-06T09:43:50.708Z,236.25
2018-03-06T09:45:22.727Z,247.50
2018-03-06T09:46:54.342Z,275.63
2018-03-06T09:48:26.160Z,354.38
2018-03-06T09:49:57.975Z,371.25
2018-03-06T09:51:29.894Z,337.50
2018-03-06T09:53:01.611Z,331.88
2018-03-06T09:54:33.428Z,315.00
2018-03-06T09:56:05.249Z,331.88
2018-03-06T09:57:37.114Z,416.25
2018-03-06T09:59:08.891Z,523.13
2018-03-06T10:00:40.701Z,466.88
2018-03-06T10:02:12.523Z,556.88
2018-03-06T10:03:44.338Z,568.13
2018-03-06T10:05:16.157Z,585.00
2018-03-06T10:06:47.980Z,607.50
2018-03-06T10:08:19.797Z,613.13
2018-03-06T10:09:51.715Z,624.38
2018-03-06T10:11:23.439Z,618.75
2018-03-06T10:12:55.255Z,720.00
2018-03-06T10:14:27.076Z,708.75
2018-03-06T10:15:58.898Z,540.00
2018-03-06T10:17:30.719Z,556.88
2018-03-06T10:19:02.598Z,624.38
2018-03-06T10:20:34.360Z,466.88
2018-03-06T10:22:07.064Z,630.00
2018-03-06T10:23:38.206Z,624.38
2018-03-06T10:26:42.163Z,590.63
2018-03-06T10:29:46.153Z,478.13
2018-03-06T10:31:17.659Z,585.00
2018-03-06T10:34:20.755Z,686.25
2018-03-06T10:37:24.401Z,720.00
2018-03-06T10:38:56.799Z,708.75
2018-03-06T10:40:28.048Z,714.38
2018-03-06T10:41:59.871Z,708.75
2018-03-06T10:43:31.997Z,720.00
2018-03-06T10:45:03.521Z,731.25
2018-03-06T10:46:35.452Z,753.75
2018-03-06T10:48:07.413Z,781.88
2018-03-06T10:49:39.123Z,804.38
2018-03-06T10:51:10.810Z,832.50
2018-03-06T10:52:43.407Z,855.00
2018-03-06T10:54:14.660Z,905.63
2018-03-06T10:55:46.282Z,877.50
2018-03-06T10:57:18.394Z,1029.38
2018-03-06T11:00:21.755Z,1130.63
2018-03-06T11:01:53.582Z,1192.50
2018-03-06T11:04:58.017Z,1231.88
2018-03-06T11:06:29.257Z,1220.63
2018-03-06T11:08:00.981Z,1248.75
2018-03-06T11:09:33.012Z,1254.38
2018-03-06T11:12:36.355Z,1046.25
2018-03-06T11:14:08.181Z,1237.50
2018-03-06T11:15:40.010Z,1198.13
2018-03-06T11:17:12.169Z,1040.63
2018-03-06T11:21:47.512Z,1198.13
2018-03-06T11:23:19.311Z,1209.38
2018-03-06T11:24:50.992Z,1226.25
2018-03-06T11:26:22.786Z,1248.75
2018-03-06T11:27:54.716Z,1226.25
2018-03-06T11:29:26.564Z,1248.75
2018-03-06T11:30:58.569Z,1293.75
2018-03-06T11:32:30.765Z,1282.50
2018-03-06T11:34:02.149Z,1389.38
2018-03-06T11:35:33.769Z,1406.25
2018-03-06T11:37:05.769Z,1248.75
2018-03-06T11:38:39.517Z,995.63
2018-03-06T11:40:10.014Z,1068.75
2018-03-06T11:41:41.135Z,821.25
2018-03-06T11:43:12.878Z,939.38
2018-03-06T11:44:44.983Z,1220.63
2018-03-06T11:46:16.974Z,1237.50
2018-03-06T11:47:48.958Z,1226.25
2018-03-06T11:49:20.376Z,1125.00
2018-03-06T11:50:52.034Z,1479.38
2018-03-06T11:52:23.840Z,1552.50
2018-03-06T11:53:59.396Z,1580.63
2018-03-06T11:55:35.087Z,1631.25
2018-03-06T11:56:59.817Z,1631.25
2018-03-06T11:58:31.135Z,1659.38
2018-03-06T12:00:02.963Z,1665.00
2018-03-06T12:01:34.992Z,1681.88
2018-03-06T12:03:06.920Z,1693.13
2018-03-06T12:04:38.592Z,1783.13
2018-03-06T12:06:10.267Z,1687.50
2018-03-06T12:07:42.362Z,1738.13
2018-03-06T12:09:13.928Z,1738.13
2018-03-06T12:10:45.759Z,1743.75
2018-03-06T12:12:17.676Z,1833.75
2018-03-06T12:13:49.398Z,1873.13
2018-03-06T12:15:21.510Z,1873.13
2018-03-06T12:16:53.728Z,1861.88
2018-03-06T12:18:25.106Z,1766.25
2018-03-06T12:19:58.086Z,1113.75
2018-03-06T12:21:29.567Z,1906.88
2018-03-06T12:23:00.684Z,2047.50
2018-03-06T12:24:32.187Z,1766.25
2018-03-06T12:26:04.015Z,2008.13
2018-03-06T12:27:35.844Z,2103.75
2018-03-06T12:29:07.668Z,2143.13
2018-03-06T12:30:39.496Z,2165.63
2018-03-06T12:32:11.323Z,2176.88
2018-03-06T12:33:43.153Z,2109.38
2018-03-06T12:35:14.999Z,2143.13
2018-03-06T12:36:46.828Z,2283.75
2018-03-06T12:38:18.637Z,2036.25
2018-03-06T12:39:50.572Z,1237.50
2018-03-06T12:41:22.446Z,1243.13
2018-03-06T12:42:54.143Z,1541.25
2018-03-06T12:44:25.951Z,2666.25
2018-03-06T12:45:57.778Z,2638.13
2018-03-06T12:47:29.610Z,2103.75
2018-03-06T12:49:01.436Z,2019.38
2018-03-06T12:50:33.466Z,2086.88
2018-03-06T12:52:05.090Z,1822.50
2018-03-06T12:53:36.918Z,2081.25
2018-03-06T12:55:08.746Z,2503.13
2018-03-06T12:56:40.931Z,1935.00
2018-03-06T12:58:12.405Z,1726.88
2018-03-06T12:59:45.161Z,2176.88
2018-03-06T13:01:16.059Z,1918.13
2018-03-06T13:02:47.886Z,2171.25
2018-03-06T13:04:19.714Z,1980.00
2018-03-06T13:07:23.372Z,2424.38
2018-03-06T13:08:55.199Z,2120.63
2018-03-06T13:11:59.169Z,3003.75
2018-03-06T13:13:30.684Z,2846.25
2018-03-06T13:15:02.512Z,2576.25
2018-03-06T13:16:34.340Z,2058.75
2018-03-06T13:18:06.169Z,1642.50
2018-03-06T13:19:38.552Z,2390.63
2018-03-06T13:21:09.829Z,2019.38
2018-03-06T13:22:41.654Z,2261.25
2018-03-06T13:24:13.482Z,1845.00
2018-03-06T13:25:45.312Z,1417.50
2018-03-06T13:27:17.138Z,1513.13
2018-03-06T13:30:20.824Z,1305.00
2018-03-06T13:31:52.671Z,1468.13
2018-03-06T13:33:24.448Z,1710.00
2018-03-06T13:34:56.580Z,1822.50
2018-03-06T13:36:28.103Z,2317.50
2018-03-06T13:38:00.086Z,2283.75
2018-03-06T13:39:31.760Z,2176.88
2018-03-06T13:41:03.587Z,1698.75
2018-03-06T13:42:35.414Z,1884.38
2018-03-06T13:44:07.250Z,1895.63
2018-03-06T13:45:39.070Z,1378.13
2018-03-06T13:47:10.907Z,1175.63
2018-03-06T13:48:42.738Z,1068.75
2018-03-06T13:51:46.711Z,2244.38
2018-03-06T13:53:18.219Z,3307.50
2018-03-06T13:54:50.040Z,3031.88
2018-03-06T13:56:21.872Z,1327.50
2018-03-06T13:57:53.790Z,2351.25
2018-03-06T13:59:25.556Z,1175.63
2018-03-06T14:00:57.354Z,2542.50
2018-03-06T14:02:29.172Z,3240.00
2018-03-06T14:05:32.903Z,1473.75
2018-03-06T14:07:05.768Z,3133.13
2018-03-06T14:08:36.498Z,3256.88
2018-03-06T14:10:08.309Z,3279.38
2018-03-06T14:11:40.439Z,3487.50
2018-03-06T14:13:12.019Z,3403.13
2018-03-06T14:14:43.808Z,3448.13
2018-03-06T14:16:15.626Z,3628.13
2018-03-06T14:18:30.010Z,3819.38
2018-03-06T14:20:01.740Z,3616.88
2018-03-06T14:21:33.571Z,1226.25
2018-03-06T14:23:05.445Z,1721.25
2018-03-06T14:24:37.437Z,3003.75
2018-03-06T14:26:09.068Z,2143.13
2018-03-06T14:29:12.730Z,860.63
2018-03-06T14:30:44.574Z,916.88
2018-03-06T14:32:16.411Z,821.25
2018-03-06T14:33:49.344Z,821.25
2018-03-06T14:35:20.670Z,810.00
2018-03-06T14:36:52.981Z,950.63
2018-03-06T14:38:24.227Z,1192.50
2018-03-06T14:39:56.099Z,3532.50
2018-03-06T14:41:27.555Z,3493.13
2018-03-06T14:42:59.381Z,3498.75
2018-03-06T14:44:31.007Z,3571.88
2018-03-06T14:46:02.834Z,3611.25
2018-03-06T14:47:34.661Z,3611.25
2018-03-06T14:50:38.321Z,3639.38
2018-03-06T14:52:10.151Z,2958.75
2018-03-06T14:55:13.813Z,3639.38
2018-03-06T14:56:45.801Z,3701.25
2018-03-06T14:58:17.473Z,3611.25
2018-03-06T14:59:49.303Z,3892.50
2018-03-06T15:01:21.132Z,3830.63
2018-03-06T15:02:52.964Z,2362.50
2018-03-06T15:04:25.004Z,3785.63
2018-03-06T15:07:28.463Z,3082.50
2018-03-06T15:09:00.295Z,1361.25
2018-03-06T15:10:32.133Z,2874.38
2018-03-06T15:12:03.959Z,922.50
2018-03-06T15:13:35.789Z,855.00
2018-03-06T15:15:07.721Z,736.88
2018-03-06T15:16:39.452Z,736.88
2018-03-06T15:18:11.287Z,748.13
2018-03-06T15:19:43.109Z,731.25
2018-03-06T15:21:14.938Z,742.50
2018-03-06T15:22:46.765Z,798.75
2018-03-06T15:24:18.799Z,916.88
2018-03-06T15:25:50.468Z,1136.25
2018-03-06T15:27:22.551Z,1198.13
2018-03-06T15:28:54.073Z,3268.13
2018-03-06T15:30:25.902Z,3397.50
2018-03-06T15:33:29.653Z,1192.50
2018-03-06T15:36:33.209Z,826.88
2018-03-06T15:38:05.035Z,742.50
2018-03-06T15:39:36.861Z,697.50
2018-03-06T15:41:08.688Z,663.75
2018-03-06T15:42:40.717Z,596.25
2018-03-06T15:44:12.342Z,545.63
2018-03-06T15:45:44.167Z,495.00
2018-03-06T15:47:15.993Z,523.13
2018-03-06T15:48:47.819Z,663.75
2018-03-06T15:50:19.646Z,691.88
2018-03-06T15:51:51.571Z,646.88
2018-03-06T15:53:23.299Z,635.63
2018-03-06T15:54:55.127Z,562.50
2018-03-06T15:56:26.948Z,511.88
2018-03-06T15:57:58.774Z,500.63
2018-03-06T16:01:02.423Z,562.50
2018-03-06T16:02:34.552Z,618.75
2018-03-06T16:04:06.073Z,652.50
2018-03-06T16:05:37.900Z,646.88
2018-03-06T16:07:09.724Z,635.63
2018-03-06T16:08:41.548Z,613.13
2018-03-06T16:10:13.474Z,641.25
2018-03-06T16:11:45.208Z,714.38
2018-03-06T16:13:17.023Z,753.75
2018-03-06T16:14:48.849Z,748.13
2018-03-06T16:16:20.673Z,748.13
2018-03-06T16:17:52.701Z,753.75
2018-03-06T16:19:24.323Z,720.00
2018-03-06T16:20:56.146Z,691.88
2018-03-06T16:22:27.972Z,720.00
2018-03-06T16:23:59.794Z,742.50
2018-03-06T16:25:31.618Z,753.75
2018-03-06T16:27:03.442Z,731.25
2018-03-06T16:28:35.444Z,691.88
2018-03-06T16:30:07.091Z,697.50
2018-03-06T16:31:38.924Z,725.63
2018-03-06T16:33:10.741Z,810.00
2018-03-06T16:34:42.584Z,1023.75
2018-03-06T16:36:14.608Z,3639.38
2018-03-06T16:37:46.800Z,3735.00
2018-03-06T16:39:18.322Z,3881.25
2018-03-06T16:40:49.862Z,3358.13
2018-03-06T16:42:21.691Z,3611.25
2018-03-06T16:45:25.604Z,973.13
2018-03-06T16:46:57.270Z,787.50
2018-03-06T16:48:29.301Z,635.63
2018-03-06T16:50:01.058Z,528.75
2018-03-06T16:51:33.425Z,489.38
2018-03-06T16:53:04.479Z,489.38
2018-03-06T16:54:36.541Z,472.50
2018-03-06T16:56:08.434Z,438.75
2018-03-06T16:59:12.039Z,405.00
2018-03-06T17:00:44.363Z,444.38
2018-03-06T17:02:15.429Z,433.13
2018-03-06T17:05:19.482Z,405.00
2018-03-06T17:06:51.206Z,348.75
2018-03-06T17:08:23.065Z,298.13
2018-03-06T17:11:26.476Z,236.25
2018-03-06T17:14:30.032Z,180.00
2018-03-06T17:16:02.009Z,140.63
2018-03-06T17:17:33.661Z,140.63
2018-03-06T17:19:06.460Z,163.13
2018-03-06T17:20:37.814Z,225.00
2018-03-06T17:22:09.125Z,303.75
2018-03-06T17:23:41.047Z,410.63
2018-03-06T17:25:12.764Z,551.25
2018-03-06T17:29:48.525Z,945.00
2018-03-06T17:31:20.041Z,3346.88
2018-03-06T17:32:51.873Z,1957.50
2018-03-06T17:34:23.680Z,1625.63
2018-03-06T17:35:55.500Z,3616.88
2018-03-06T17:37:27.321Z,3701.25
2018-03-06T17:38:59.144Z,3611.25
2018-03-06T17:40:30.971Z,3667.50
2018-03-06T17:42:03.092Z,3324.38
2018-03-06T17:43:34.863Z,3268.13
2018-03-06T17:46:38.566Z,3105.00
2018-03-06T17:48:10.088Z,2908.13
2018-03-06T17:49:42.218Z,2368.13
2018-03-06T17:51:13.741Z,2266.88
2018-03-06T17:52:45.568Z,2925.00
2018-03-06T17:54:17.392Z,2739.38
2018-03-06T17:55:49.222Z,2671.88
2018-03-06T17:57:21.046Z,2576.25
2018-03-06T17:58:52.863Z,2643.75
2018-03-06T18:00:24.790Z,2700.00
2018-03-06T18:01:56.716Z,2340.00
2018-03-06T18:03:28.542Z,2430.00
2018-03-06T18:06:31.994Z,2289.38
2018-03-06T18:08:03.822Z,2098.13
2018-03-06T18:09:35.646Z,2171.25
2018-03-06T18:11:07.473Z,2441.25
2018-03-06T18:12:39.512Z,2278.13
2018-03-06T18:14:11.124Z,2092.50
2018-03-06T18:17:14.776Z,2238.75
2018-03-06T18:20:18.746Z,2030.63
2018-03-06T18:21:50.560Z,2041.88
2018-03-06T18:23:22.080Z,1788.75
2018-03-06T18:24:54.471Z,2126.25
2018-03-06T18:26:25.773Z,2064.38
2018-03-06T18:27:57.758Z,1839.38
2018-03-06T18:29:29.380Z,1861.88
2018-03-06T18:31:01.205Z,1518.75
2018-03-06T18:32:33.030Z,1456.88
2018-03-06T18:35:36.681Z,1501.88
2018-03-06T18:37:08.708Z,1215.00
2018-03-06T18:40:12.254Z,1130.63
2018-03-06T18:43:15.804Z,759.38
2018-03-06T18:44:47.627Z,742.50
2018-03-06T18:46:19.451Z,742.50
2018-03-06T18:47:51.503Z,961.88
2018-03-06T18:49:23.304Z,810.00
2018-03-06T18:52:26.745Z,714.38
2018-03-06T18:53:58.569Z,945.00
2018-03-06T18:57:02.441Z,1833.75
2018-03-06T18:58:34.604Z,1794.38
2018-03-06T19:00:06.369Z,2058.75
2018-03-06T19:01:37.685Z,2086.88
2018-03-06T19:03:09.740Z,1940.63
2018-03-06T19:06:13.156Z,1760.63
2018-03-06T19:07:44.981Z,1299.38
2018-03-06T19:09:16.812Z,1018.13
2018-03-06T19:10:48.628Z,1445.63
2018-03-06T19:12:20.454Z,1355.63
2018-03-06T19:13:52.503Z,1698.75
2018-03-06T19:15:24.677Z,1676.25
2018-03-06T19:16:55.925Z,1186.88
2018-03-06T19:18:27.850Z,1029.38
2018-03-06T19:21:31.397Z,1468.13
2018-03-06T19:24:35.103Z,1141.88
2018-03-06T19:26:06.870Z,534.38
2018-03-06T19:27:38.694Z,472.50
2018-03-06T19:29:10.522Z,416.25
2018-03-06T19:30:42.351Z,376.88
2018-03-06T19:32:14.165Z,376.88
2018-03-06T19:33:45.990Z,427.50
2018-03-06T19:35:17.812Z,528.75
2018-03-06T19:36:49.739Z,562.50
2018-03-06T19:38:21.507Z,568.13
2018-03-06T19:39:53.282Z,573.75
2018-03-06T19:41:25.101Z,540.00
2018-03-06T19:42:56.923Z,511.88
2018-03-06T19:44:28.787Z,500.63
2018-03-06T19:49:04.211Z,388.13
2018-03-06T19:50:36.035Z,365.63
2018-03-06T19:52:07.858Z,354.38
2018-03-06T19:53:39.681Z,320.63
2018-03-06T19:55:12.415Z,315.00
2018-03-06T19:56:43.705Z,315.00
2018-03-06T19:58:15.140Z,315.00
2018-03-06T19:59:47.432Z,326.25
2018-03-06T20:01:18.985Z,320.63
2018-03-06T20:02:50.663Z,337.50
2018-03-06T20:05:54.409Z,230.63
2018-03-06T20:07:26.068Z,202.50
2018-03-06T20:08:57.891Z,202.50
2018-03-06T20:10:29.860Z,157.50
2018-03-06T20:12:01.530Z,112.50
2018-03-06T20:13:33.937Z,95.63
2018-03-06T20:15:05.173Z,78.75
2018-03-06T20:16:37.153Z,73.13
2018-03-06T20:18:08.813Z,78.75
2018-03-06T20:19:40.884Z,73.13
2018-03-06T20:21:12.455Z,67.50
2018-03-06T20:22:44.276Z,73.13
2018-03-06T20:24:16.094Z,73.13
2018-03-06T20:25:48.100Z,73.13
2018-03-06T20:27:19.735Z,78.75
2018-03-06T20:28:51.555Z,84.38
2018-03-06T20:30:23.375Z,78.75
2018-03-06T20:31:55.357Z,73.13
2018-03-06T20:33:27.493Z,67.50
2018-03-06T20:34:58.834Z,50.63
2018-03-06T20:36:30.667Z,45.00
2018-03-06T20:38:02.473Z,33.75